Latest Weather Observations for Kilmore Gap

IDV60801

Issued at 3:32 pm EST Tuesday 26 September 2017 (issued every 30 minutes, with the page automatically refreshed every 10 minutes)

About weather observations | Map of weather stations | Latest weather observations for VIC | Other Formats
Station Details ID: 088162 Name: KILMORE GAP Lat: -37.38 Lon: 144.97 Height: 527.8 m
Data from the previous 72 hours. | See also: Recent months at Kilmore Gap
Date/Time
EST
Temp
°C
App
Temp
°C
Dew
Point
°C
Rel
Hum
%
Delta-T
°C
Wind Press
QNH
hPa
Press
MSL
hPa
Rain since
9am
mm
Dir  Spd
km/h
Gust
km/h
Spd
kts
Gust
kts
26/03:30pm 12.4 10.0 4.1 57 3.9 SE 6 9 3 5 1015.8 1016.0 0.0
26/03:00pm 12.5 10.0 5.0 60 3.6 SSW 7 13 4 7 1015.9 1016.1 0.0
26/02:30pm 11.8 9.1 2.5 53 4.2 SE 6 13 3 7 1016.0 1016.3 0.0
26/02:00pm 12.0 9.5 3.8 57 3.8 W 6 9 3 5 1016.3 1016.6 0.0
26/01:30pm 11.2 8.4 2.2 54 4.0 WNW 6 13 3 7 1016.6 1016.8 0.0
26/01:00pm 11.3 8.2 3.8 60 3.4 SW 9 17 5 9 1017.2 1017.4 0.0
26/12:30pm 10.4 7.5 2.5 58 3.5 NW 7 11 4 6 1017.4 1017.6 0.0
26/12:00pm 10.0 6.9 3.7 65 2.8 S 9 15 5 8 1017.5 1017.7 0.0
26/11:30am 9.2 6.7 3.6 68 2.5 SSW 6 15 3 8 1017.5 1017.7 0.0
26/11:00am 9.7 7.2 4.5 70 2.4 SSE 7 11 4 6 1017.8 1018.1 0.0
26/10:30am 8.3 5.2 3.8 73 2.0 SSE 9 13 5 7 1018.0 1018.3 0.0
26/10:00am 8.9 5.5 4.1 72 2.2 ESE 11 15 6 8 1017.4 1017.6 0.0
26/09:30am 7.8 4.0 4.0 77 1.7 SSE 13 20 7 11 1017.6 1017.8 0.0
26/09:00am 7.3 3.9 4.1 80 1.4 SE 11 15 6 8 1017.6 1017.8 12.6
26/08:30am 7.6 4.7 4.9 83 1.2 SE 9 13 5 7 1017.5 1017.7 12.6
26/08:00am 5.8 2.7 3.8 87 0.9 SSW 9 13 5 7 1017.4 1017.6 12.6
26/07:30am 4.7 1.1 3.2 90 0.6 SW 11 15 6 8 1017.2 1017.4 12.6
26/07:00am 3.9 0.6 2.6 91 0.5 WSW 9 13 5 7 1017.0 1017.2 12.6
26/06:30am 3.3 -0.8 2.3 93 0.4 SW 13 15 7 8 1016.6 1016.8 12.6
26/06:00am 3.2 -0.9 2.5 95 0.3 SW 13 17 7 9 1016.3 1016.6 12.4
26/05:30am 3.2 -0.9 2.5 95 0.3 SW 13 17 7 9 1015.9 1016.1 12.4
26/05:00am 3.6 -1.6 2.7 94 0.4 SW 19 22 10 12 1015.5 1015.7 12.4
26/04:30am 3.9 -1.2 2.9 93 0.4 SSW 19 26 10 14 1015.3 1015.5 12.4
26/04:00am 3.6 -1.1 2.9 95 0.3 SW 17 19 9 10 1015.3 1015.5 12.4
26/03:30am 3.4 -1.0 2.8 96 0.2 SW 15 19 8 10 1015.6 1015.8 12.4
26/03:00am 3.4 -1.0 2.8 96 0.2 SW 15 19 8 10 1015.6 1015.8 12.4
26/02:30am 3.6 -0.8 2.9 95 0.3 WSW 15 19 8 10 1015.6 1015.8 12.4
26/02:00am 3.7 -0.3 3.1 96 0.3 WSW 13 15 7 8 1015.6 1015.8 12.4
26/01:30am 3.9 0.0 3.2 95 0.3 WSW 13 17 7 9 1015.6 1015.8 12.4
26/01:00am 4.2 -0.5 3.3 94 0.4 SW 17 19 9 10 1015.5 1015.7 12.4
26/12:30am 4.3 -0.7 3.4 94 0.4 SW 19 24 10 13 1015.5 1015.7 12.4
26/12:00am 4.4 -0.6 3.7 95 0.3 SSW 19 24 10 13 1015.3 1015.5 12.4
 
Date/Time
EST
Temp
°C
App
Temp
°C
Dew
Point
°C
Rel
Hum
%
Delta-T
°C
Wind Press
QNH
hPa
Press
MSL
hPa
Rain since
9am
mm
Dir  Spd
km/h
Gust
km/h
Spd
kts
Gust
kts
25/11:30pm 4.6 -0.4 3.6 93 0.4 SSW 19 26 10 14 1015.2 1015.4 12.4
25/11:00pm 5.0 0.4 3.8 92 0.5 SSW 17 22 9 12 1015.2 1015.4 12.4
25/10:30pm 5.2 0.6 3.9 91 0.6 SSW 17 24 9 13 1015.2 1015.4 12.4
25/10:00pm 5.3 0.2 4.0 91 0.6 SSW 20 24 11 13 1015.0 1015.2 12.4
25/09:30pm 5.3 0.4 4.0 91 0.6 SSW 19 24 10 13 1015.0 1015.2 12.4
25/09:00pm 5.5 0.6 4.0 90 0.7 SSW 19 24 10 13 1014.8 1015.0 12.4
25/08:30pm 5.9 0.8 4.1 88 0.8 SSW 20 28 11 15 1014.5 1014.7 12.4
25/08:00pm 6.4 1.6 4.7 89 0.8 SSW 19 32 10 17 1014.2 1014.4 12.4
25/07:30pm 6.5 1.8 6.2 98 0.1 S 20 33 11 18 1013.6 1013.8 12.4
25/07:00pm 6.4 2.3 6.3 99 0.0 S 17 20 9 11 1013.3 1013.5 12.4
25/06:56pm 6.5 2.4 6.4 99 0.0 S 17 22 9 12 1013.3 1013.5 12.4
25/06:30pm 7.2 3.3 6.9 98 0.1 S 17 22 9 12 1012.9 1013.1 12.4
25/06:18pm 7.3 2.9 6.7 96 0.3 S 19 24 10 13 1012.7 1012.8 12.4
25/06:00pm 7.8 3.8 6.6 92 0.6 SSW 17 24 9 13 1012.6 1012.7 12.4
25/05:30pm 8.0 3.4 6.3 89 0.8 SW 20 28 11 15 1012.0 1012.2 12.4
25/05:00pm 8.3 4.0 7.1 92 0.6 SW 19 30 10 16 1011.9 1012.1 12.4
25/04:30pm 8.3 2.7 7.1 92 0.6 SW 26 56 14 30 1011.4 1011.6 12.4
25/04:00pm 9.4 5.3 7.8 90 0.8 SW 19 26 10 14 1010.9 1011.0 12.4
25/03:30pm 8.3 2.6 6.9 91 0.7 SW 26 39 14 21 1010.8 1010.9 12.0
25/03:00pm 8.7 4.6 7.9 95 0.4 SW 19 26 10 14 1010.5 1010.6 11.8
25/02:40pm 8.9 4.4 6.9 87 1.0 SW 20 44 11 24 1010.0 1010.2 11.2
25/02:30pm 10.1 6.6 8.7 91 0.7 WSW 17 22 9 12 1009.9 1010.1 11.2
25/02:07pm 9.5 6.2 9.4 99 0.1 SW 17 22 9 12 1010.0 1010.2 11.2
25/02:04pm 9.3 5.9 9.2 99 0.1 SW 17 28 9 15 1009.9 1010.1 11.2
25/02:00pm 8.5 4.9 8.4 99 0.0 SW 17 28 9 15 1010.0 1010.2 11.2
25/01:53pm 8.1 3.5 8.0 99 0.0 WSW 22 39 12 21 1010.1 1010.3 11.0
25/01:49pm 8.0 3.3 7.9 99 0.0 SW 22 39 12 21 1010.1 1010.3 10.8
25/01:39pm 8.2 3.6 8.1 99 0.0 SSW 22 35 12 19 1009.8 1010.0 10.6
25/01:30pm 8.5 4.0 8.4 99 0.0 SSW 22 33 12 18 1009.8 1010.0 10.6
25/01:17pm 8.9 4.7 7.4 90 0.7 WSW 19 35 10 19 1009.7 1009.9 10.0
25/01:00pm 11.0 7.8 10.1 94 0.5 W 17 24 9 13 1009.3 1009.4 9.4
25/12:44pm 9.6 7.0 9.5 99 0.1 WSW 13 17 7 9 1009.4 1009.5 9.4
25/12:30pm 7.9 4.2 7.8 99 0.0 WSW 17 26 9 14 1009.6 1009.8 9.4
25/12:16pm 8.2 5.3 8.1 99 0.0 SW 13 22 7 12 1009.6 1009.8 8.6
25/12:09pm 8.5 5.3 8.4 99 0.0 SW 15 20 8 11 1009.5 1009.6 8.2
25/12:00pm 8.5 5.3 8.4 99 0.0 SW 15 20 8 11 1009.5 1009.6 8.0
25/11:51am 9.0 5.2 8.9 99 0.1 SW 19 24 10 13 1009.4 1009.5 8.0
25/11:30am 8.4 6.3 8.3 99 0.0 SW 9 13 5 7 1009.4 1009.5 7.4
25/11:24am 8.5 6.8 8.4 99 0.0 SW 7 11 4 6 1009.3 1009.4 6.8
25/11:00am 8.8 6.4 8.7 99 0.1 SW 11 17 6 9 1009.2 1009.3 6.0
25/10:34am 8.1 5.2 8.0 99 0.0 SW 13 20 7 11 1009.3 1009.4 5.8
25/10:30am 7.9 4.5 7.8 99 0.0 SW 15 20 8 11 1009.3 1009.4 5.6
25/10:00am 7.7 3.9 7.6 99 0.0 SW 17 24 9 13 1009.2 1009.3 5.4
25/09:38am 8.0 5.4 7.9 99 0.0 WSW 11 17 6 9 1009.0 1009.1 1.4
25/09:35am 8.3 5.4 8.2 99 0.0 WSW 13 19 7 10 1009.0 1009.1 1.0
25/09:30am 8.5 5.3 8.4 99 0.0 WSW 15 19 8 10 1008.9 1009.0 0.6
25/09:19am 8.1 5.2 8.0 99 0.0 WSW 13 19 7 10 1008.7 1008.8 0.6
25/09:00am 7.8 4.0 7.7 99 0.0 WSW 17 22 9 12 1008.3 1008.5 0.6
25/08:35am 7.9 3.7 7.3 96 0.3 SW 19 30 10 16 1008.0 1008.2 0.4
25/08:30am 8.0 3.1 6.8 92 0.6 WSW 22 30 12 16 1007.9 1008.0 0.2
25/08:22am 8.9 4.5 6.5 85 1.1 W 19 32 10 17 1007.7 1007.8 0.2
25/08:00am 9.1 4.6 6.2 82 1.4 W 19 28 10 15 1007.4 1007.5 0.2
25/07:30am 8.3 5.2 7.1 92 0.6 WNW 13 17 7 9 1007.1 1007.2 0.2
25/07:00am 7.8 4.7 7.2 96 0.3 WNW 13 17 7 9 1006.6 1006.7 0.2
25/06:30am 7.7 4.5 6.8 94 0.4 NW 13 17 7 9 1006.2 1006.3 0.2
25/06:00am 7.5 4.3 6.9 96 0.3 NW 13 19 7 10 1005.9 1006.0 0.2
25/05:30am 7.4 4.2 7.0 97 0.2 NW 13 19 7 10 1005.6 1005.7 0.2
25/05:00am 7.6 3.7 6.9 95 0.3 NW 17 24 9 13 1005.3 1005.4 0.2
25/04:30am 7.9 4.0 7.0 94 0.4 NW 17 22 9 12 1005.1 1005.2 0.0
25/04:00am 8.0 4.1 7.1 94 0.4 NW 17 22 9 12 1004.8 1004.9 0.0
25/03:30am 8.3 4.0 6.8 90 0.7 NW 19 24 10 13 1004.8 1004.9 0.0
25/03:00am 8.4 4.0 6.4 87 1.0 NW 19 24 10 13 1004.8 1004.9 0.0
25/02:30am 8.5 3.9 6.5 87 1.0 NW 20 26 11 14 1004.8 1004.9 0.0
25/02:00am 8.6 4.1 6.2 85 1.1 NW 19 24 10 13 1004.9 1005.0 0.0
25/01:30am 8.8 3.8 6.3 84 1.2 NW 22 33 12 18 1004.8 1004.9 0.0
25/01:00am 8.8 4.2 6.6 86 1.1 NW 20 32 11 17 1004.7 1004.7 0.0
25/12:30am 8.6 4.6 6.6 87 1.0 NW 17 30 9 16 1004.5 1004.5 0.0
25/12:00am 8.8 4.7 6.3 84 1.2 WNW 17 28 9 15 1004.6 1004.6 0.0
 
Date/Time
EST
Temp
°C
App
Temp
°C
Dew
Point
°C
Rel
Hum
%
Delta-T
°C
Wind Press
QNH
hPa
Press
MSL
hPa
Rain since
9am
mm
Dir  Spd
km/h
Gust
km/h
Spd
kts
Gust
kts
24/11:30pm 9.0 4.6 6.6 85 1.1 WNW 19 33 10 18 1004.2 1004.3 0.0
24/11:00pm 9.1 3.8 6.9 86 1.1 NW 24 41 13 22 1003.7 1003.8 0.0
24/10:30pm 9.1 3.3 6.2 82 1.4 WNW 26 50 14 27 1003.3 1003.4 0.0
24/10:00pm 9.3 3.2 6.4 82 1.4 WNW 28 48 15 26 1003.0 1003.0 0.0
24/09:31pm 9.5 2.4 6.2 80 1.6 WNW 33 52 18 28 1002.5 1002.5 0.0
24/09:30pm 9.6 2.1 6.3 80 1.6 WNW 35 52 19 28 1002.5 1002.5 0.0
24/09:00pm 9.9 1.9 5.9 76 1.9 WNW 37 57 20 31 1001.9 1002.0 0.0
24/08:30pm 10.1 2.3 5.1 71 2.3 WNW 35 57 19 31 1001.7 1001.8 0.0
24/08:07pm 11.5 3.1 3.5 58 3.6 NW 37 56 20 30 1001.3 1001.3 0.0
24/08:00pm 11.4 3.3 3.4 58 3.7 NW 35 50 19 27 1001.3 1001.3 0.0
24/07:30pm 11.9 3.0 2.9 54 4.1 NW 39 59 21 32 1000.5 1000.5 0.0
24/07:00pm 12.3 3.3 2.2 50 4.5 NW 39 59 21 32 1000.2 1000.3 0.0
24/06:30pm 12.6 3.1 1.6 47 4.9 NW 41 65 22 35 999.6 999.6 0.0
24/06:00pm 12.7 2.6 1.7 47 4.9 NW 44 63 24 34 999.3 999.3 0.0
24/05:30pm 13.3 3.3 1.3 44 5.3 NW 43 76 23 41 998.9 998.9 0.0
24/05:00pm 13.6 4.4 3.7 51 4.6 NW 41 59 22 32 998.8 998.8 0.0
24/04:30pm 13.7 4.7 4.6 54 4.3 NW 41 65 22 35 998.5 998.5 0.0
24/04:00pm 13.2 4.0 5.4 59 3.8 NW 43 67 23 36 998.5 998.5 0.0
24/03:30pm 13.7 3.1 5.1 56 4.1 NW 50 72 27 39 998.6 998.6 0.0
24/03:00pm 12.9 3.6 5.1 59 3.8 NW 43 74 23 40 998.8 998.8 0.0
24/02:30pm 13.3 5.1 6.4 63 3.4 NW 39 57 21 31 999.1 999.1 0.0
24/02:16pm 13.1 4.3 5.5 60 3.7 NW 41 59 22 32 999.1 999.1 0.0
24/02:00pm 13.1 4.1 6.5 64 3.3 NNW 43 56 23 30 999.1 999.1 0.0
24/01:30pm 11.0 2.0 6.6 74 2.1 NNW 43 65 23 35 999.1 999.1 0.0
24/01:00pm 12.1 1.3 5.9 66 3.0 NW 52 70 28 38 999.2 999.2 0.0
24/12:30pm 13.8 4.7 5.9 59 3.9 NW 43 61 23 33 999.7 999.7 0.0
24/12:00pm 12.9 4.3 4.6 57 3.9 NW 39 59 21 32 1000.1 1000.2 0.0
24/11:30am 12.0 4.6 5.2 63 3.2 NW 33 59 18 32 1000.7 1000.7 0.0
24/11:16am 12.9 5.7 6.0 63 3.4 NNW 33 52 18 28 1000.6 1000.6 0.0
24/11:00am 11.6 3.2 3.9 59 3.6 NW 37 52 20 28 1000.5 1000.5 0.0
24/10:30am 11.3 3.8 4.7 64 3.1 NW 33 54 18 29 1000.8 1000.8 0.0
24/10:00am 11.7 4.9 7.0 73 2.3 NW 32 54 17 29 1000.9 1000.9 0.0
24/09:34am 10.2 3.1 5.6 73 2.2 NW 32 52 17 28 1000.8 1000.8 0.0
24/09:30am 10.6 3.1 6.4 75 2.0 NW 35 48 19 26 1000.9 1000.9 0.0
24/09:03am 9.3 1.7 5.7 78 1.7 NW 35 54 19 29 1001.0 1001.0 0.0
24/09:00am 9.2 1.2 5.6 78 1.7 NW 37 52 20 28 1000.8 1000.8 0.0
24/08:52am 9.3 2.2 5.5 77 1.8 NW 32 52 17 28 1000.8 1000.8 0.0
24/08:48am 9.7 2.7 6.2 79 1.7 NW 32 48 17 26 1001.0 1001.0 0.0
24/08:30am 8.7 2.6 6.5 86 1.0 NW 28 50 15 27 1001.0 1001.0 0.0
24/08:24am 8.7 2.6 6.7 87 1.0 NW 28 50 15 27 1000.8 1000.8 0.0
24/08:00am 8.2 0.5 7.3 94 0.4 NNW 37 50 20 27 1000.1 1000.2 0.0
24/07:30am 8.0 -0.3 7.9 99 0.0 NNW 41 61 22 33 999.2 999.2 0.0
24/07:14am 7.9 -1.0 7.8 99 0.0 NNW 44 63 24 34 998.8 998.8 0.0
24/07:00am 7.9 -0.4 7.8 99 0.0 N 41 50 22 27 999.1 999.1 0.0
24/06:30am 7.7 0.1 7.6 99 0.0 N 37 46 20 25 998.8 998.8 0.0
24/06:00am 8.0 0.8 7.7 98 0.1 N 35 43 19 23 999.2 999.2 0.0
24/05:34am 8.0 1.7 7.2 95 0.4 N 30 39 16 21 999.1 999.1 0.0
24/05:30am 7.9 1.5 7.0 94 0.4 N 30 39 16 21 999.1 999.1 0.0
24/05:00am 8.2 2.5 6.7 90 0.7 N 26 35 14 19 999.6 999.6 0.0
24/04:30am 8.6 3.6 6.4 86 1.0 N 22 32 12 17 1000.0 1000.1 0.0
24/04:00am 8.7 3.3 6.3 85 1.1 NNW 24 32 13 17 1000.2 1000.3 0.0
24/03:30am 8.8 3.7 6.1 83 1.3 NNW 22 28 12 15 1000.0 1000.1 0.0
24/03:00am 9.1 4.0 5.8 80 1.6 NNW 22 32 12 17 1000.4 1000.4 0.0
24/02:30am 9.2 3.3 5.6 78 1.7 NW 26 33 14 18 1000.1 1000.2 0.0
24/02:00am 9.7 3.3 5.3 74 2.1 NW 28 39 15 21 999.9 1000.0 0.0
24/01:30am 10.4 5.1 5.0 69 2.5 WNW 22 37 12 20 1000.0 1000.1 0.0
24/01:00am 10.2 5.5 5.2 71 2.4 WNW 19 30 10 16 1000.5 1000.5 0.0
24/12:30am 10.7 5.5 5.5 70 2.5 WNW 22 35 12 19 1000.4 1000.4 0.0
24/12:00am 11.2 6.5 5.9 70 2.6 WNW 20 28 11 15 1000.2 1000.3 0.0
 
Date/Time
EST
Temp
°C
App
Temp
°C
Dew
Point
°C
Rel
Hum
%
Delta-T
°C
Wind Press
QNH
hPa
Press
MSL
hPa
Rain since
9am
mm
Dir  Spd
km/h
Gust
km/h
Spd
kts
Gust
kts
23/11:30pm 11.6 7.1 6.3 70 2.6 WNW 19 32 10 17 1000.1 1000.2 0.0
23/11:00pm 11.7 8.6 7.2 74 2.2 W 13 19 7 10 1000.0 1000.1 0.0
23/10:30pm 11.8 9.2 7.9 77 2.0 W 11 17 6 9 1000.0 1000.1 0.0
23/10:00pm 11.5 10.3 9.4 87 1.1 SSE 6 7 3 4 1000.1 1000.2 0.0
23/09:30pm 11.0 9.2 9.3 89 0.9 SSE 9 17 5 9 1000.1 1000.2 0.0
23/09:00pm 11.4 9.9 9.3 87 1.1 S 7 11 4 6 999.8 999.8 0.0
23/08:30pm 11.4 8.8 9.3 87 1.1 S 13 22 7 12 999.5 999.5 0.0
23/08:00pm 11.3 7.5 9.0 86 1.2 SSE 19 26 10 14 999.4 999.4 0.0
23/07:30pm 11.5 7.6 9.4 87 1.1 SSE 20 32 11 17 999.0 999.0 0.0
23/07:00pm 12.1 7.4 9.1 82 1.6 S 24 33 13 18 998.4 998.4 0.0
23/06:30pm 13.4 8.1 9.8 79 1.9 S 28 37 15 20 998.2 998.2 0.0
23/06:04pm 15.4 10.2 10.4 72 2.7 SSW 28 46 15 25 997.4 997.4 0.0
23/06:00pm 15.7 11.0 10.5 71 2.8 SSW 26 41 14 22 997.2 997.2 0.0
23/05:53pm 16.6 10.9 11.1 70 3.0 SSW 32 50 17 27 996.9 996.9 0.0
23/05:46pm 17.4 11.5 11.0 66 3.5 WSW 33 50 18 27 996.4 996.3 0.0
23/05:30pm 22.4 15.3 6.6 36 8.3 WNW 33 52 18 28 994.8 994.7 0.0
23/05:00pm 23.9 17.6 7.5 35 8.9 WNW 30 52 16 28 993.8 993.8 0.0
23/04:44pm 23.9 17.1 6.7 33 9.1 WNW 32 59 17 32 993.3 993.2 0.0
23/04:30pm 24.1 18.0 6.8 33 9.2 WNW 28 41 15 22 993.1 993.0 0.0
23/04:05pm 23.9 17.4 8.3 37 8.5 NW 32 52 17 28 992.6 992.5 0.0
23/04:00pm 23.8 17.4 8.6 38 8.4 NNW 32 46 17 25 992.5 992.4 0.0

Other Formats:

Comma delimited format used in spreadsheet applications
http://www.bom.gov.au/fwo/IDV60801/IDV60801.94860.axf

JavaScript Object Notation format (JSON) in row-major order
http://www.bom.gov.au/fwo/IDV60801/IDV60801.94860.json